ADDS METAR Data INFO
IDs: Format: Raw Decoded Include TAF

Data at: 1518 UTC 11 Dec 2017

KFFX 111516Z AUTO 12006KT 2SM -SN SCT008 BKN017 OVC022 M05/M05 A2991 RMK AO2 T10501055
KFFX 111456Z AUTO 12006KT 1 1/2SM -SN SCT010 BKN023 OVC030 M05/M06 A2991 RMK AO2 T10511058
KFFX 111436Z AUTO 13006KT 1 3/4SM -SN SCT010 BKN023 OVC029 M05/M06 A2992 RMK AO2 T10521058
KFFX 111416Z AUTO 13006KT 1 1/4SM -SN BKN015 OVC021 M05/M06 A2992 RMK AO2 T10551060
KFFX 111356Z AUTO 13006KT 1SM -SN OVC015 M05/M06 A2993 RMK AO2 T10551060
KFFX 111336Z AUTO 13006KT 1 1/4SM -SN OVC018 M05/M06 A2992 RMK AO2 T10551063
KFFX 111316Z AUTO 14005KT 2 1/2SM -SN SCT024 OVC029 M05/M07 A2994 RMK AO2 T10551066
KFFX 111255Z AUTO 14005KT 3SM -SN BKN023 BKN031 OVC038 M05/M07 A2994 RMK AO2 T10551070
KFFX 111235Z AUTO 13004KT 7SM -SN BKN025 OVC030 M05/M07 A2995 RMK AO2 T10521075
KFFX 111215Z AUTO 14005KT 10SM OVC027 M05/M08 A2997 RMK AO2 T10531080
KFFX 111155Z AUTO 15003KT 10SM OVC027 M05/M08 A2998 RMK AO2 T10541081 11045 21055
KFFX 111135Z AUTO 14003KT 10SM OVC029 M05/M08 A2998 RMK AO2 T10551082
KFFX 111115Z AUTO 13003KT 10SM OVC031 M05/M08 A2998 RMK AO2 T10551083
KFFX 111055Z AUTO 00000KT 10SM OVC031 M05/M08 A2999 RMK AO2 T10551084
KFFX 111035Z AUTO 00000KT 10SM OVC029 M05/M08 A2998 RMK AO2 T10551082
KFFX 111015Z AUTO 00000KT 10SM OVC029 M05/M08 A2998 RMK AO2 T10551082
KFFX 110955Z AUTO 00000KT 10SM OVC029 M05/M08 A2999 RMK AO2 T10541081
KFFX 110935Z AUTO 00000KT 10SM OVC029 M05/M08 A3000 RMK AO2 T10521080
KFFX 110915Z AUTO 10003KT 10SM OVC029 M05/M08 A2998 RMK AO2 T10521083
KFFX 110859Z AUTO 00000KT 10SM OVC029 M05/M08 A3000 RMK AO2 T10501082
KFFX 110838Z AUTO 09004KT 10SM OVC029 M05/M08 A3001 RMK AO2 T10501076
KFFX 110818Z AUTO 00000KT 10SM OVC029 M05/M07 A3001 RMK AO2 T10511073
KFFX 110758Z AUTO 00000KT 10SM OVC031 M05/M08 A3003 RMK AO2 T10501077
KFFX 110738Z AUTO 00000KT 10SM OVC031 M05/M08 A3002 RMK AO2 T10471080
KFFX 110718Z AUTO 03003KT 10SM OVC029 M05/M08 A3002 RMK AO2 T10471082
KFFX 110658Z AUTO 00000KT 10SM OVC031 M05/M08 A3001 RMK AO2 T10471081
KFFX 110638Z AUTO 05003KT 10SM OVC029 M05/M08 A3001 RMK AO2 T10481076
KFFX 110618Z AUTO 00000KT 10SM OVC031 M05/M07 A3001 RMK AO2 T10511070
KFFX 110558Z AUTO 00000KT 10SM OVC031 M05/M07 A3001 RMK AO2 T10471070 11032 21050 410191054
KFFX 110538Z AUTO 00000KT 10SM OVC029 M05/M07 A3001 RMK AO2 T10481070
KFFX 110517Z AUTO 00000KT 10SM OVC029 M04/M07 A3001 RMK AO2 T10451071
KFFX 110457Z AUTO 03004KT 10SM SCT022 OVC029 M04/M07 A3001 RMK AO2 T10451070
KFFX 110437Z AUTO 00000KT 10SM OVC022 M04/M06 A3002 RMK AO2 T10431065
KFFX 110417Z AUTO 01006KT 10SM -SN BKN024 OVC028 M04/M06 A3002 RMK AO2 T10421060
KFFX 110357Z AUTO 02005KT 7SM -SN OVC030 M04/M05 A3002 RMK AO2 T10401055
KFFX 110337Z AUTO 36005KT 5SM -SN BKN028 OVC034 M04/M05 A3001 RMK AO2 T10411047
KFFX 110317Z AUTO 35003KT 5SM -SN OVC026 M04/M05 A3000 RMK AO2 T10401050
KFFX 110257Z AUTO 36004KT 5SM -SN OVC024 M04/M05 A3000 RMK AO2 T10371052
KFFX 110237Z AUTO 36005KT 10SM OVC022 M03/M06 A3000 RMK AO2 T10351056
KFFX 110217Z AUTO 36006KT 10SM BKN024 OVC031 M03/M06 A3000 RMK AO2 T10321056
KFFX 110157Z AUTO 34005KT 10SM -SN OVC024 M03/M05 A2999 RMK AO2 T10321053
KFFX 110137Z AUTO 36006KT 10SM -SN OVC026 M03/M05 A2998 RMK AO2 T10321055
KFFX 110117Z AUTO 27003KT 10SM OVC030 M03/M06 A2997 RMK AO2 T10341056
KFFX 110056Z AUTO 00000KT 10SM OVC030 M03/M06 A2996 RMK AO2 T10351056
KFFX 110036Z AUTO 25003KT 10SM OVC030 M03/M06 A2996 RMK AO2 T10351060
KFFX 110016Z AUTO 25004KT 10SM SCT028 OVC035 M03/M06 A2996 RMK AO2 T10351061
KFFX 102356Z AUTO 00000KT 10SM OVC026 M03/M06 A2995 RMK AO2 T10331061 11020 21035
KFFX 102336Z AUTO 28003KT 10SM OVC026 M03/M06 A2994 RMK AO2 T10351061
KFFX 102316Z AUTO 29003KT 10SM OVC024 M03/M06 A2993 RMK AO2 T10351060
KFFX 102256Z AUTO 34004KT 10SM OVC022 M03/M06 A2993 RMK AO2 T10351061
KFFX 102236Z AUTO 32005KT 10SM OVC022 M03/M06 A2992 RMK AO2 T10351059
KFFX 102216Z AUTO 34008KT 10SM BKN017 OVC023 M03/M05 A2991 RMK AO2 T10321055
KFFX 102156Z AUTO 34008KT 10SM OVC017 M03/M05 A2990 RMK AO2 T10301053
KFFX 102136Z AUTO 33008KT 10SM OVC015 M03/M05 A2988 RMK AO2 T10301050
KFFX 102115Z AUTO 33007KT 10SM OVC015 M03/M05 A2987 RMK AO2 T10301050
KFFX 102055Z AUTO 31006KT 10SM OVC015 M03/M05 A2986 RMK AO2 T10281050
KFFX 102035Z AUTO 32008KT 10SM OVC013 M03/M05 A2985 RMK AO2 T10271048
KFFX 102015Z AUTO 31009KT 10SM OVC013 M03/M05 A2985 RMK AO2 T10271046
KFFX 101955Z AUTO 31008KT 10SM OVC015 M03/M04 A2984 RMK AO2 T10271045
KFFX 101935Z AUTO 31008KT 10SM OVC015 M03/M05 A2984 RMK AO2 T10261047
KFFX 101915Z AUTO 31009KT 10SM OVC017 M03/M05 A2983 RMK AO2 T10261046
KFFX 101855Z AUTO 30006KT 10SM OVC017 M02/M05 A2983 RMK AO2 T10251047
KFFX 101835Z AUTO 31007KT 10SM OVC017 M02/M04 A2982 RMK AO2 T10231045
KFFX 101815Z AUTO 30007KT 10SM OVC017 M02/M04 A2982 RMK AO2 T10221045
KFFX 101755Z AUTO 29006KT 10SM OVC019 M02/M04 A2982 RMK AO2 T10201042 11019 21048
KFFX 101735Z AUTO 27005KT 10SM OVC019 M02/M04 A2982 RMK AO2 T10201042
KFFX 101715Z AUTO 26007KT 10SM OVC019 M02/M04 A2983 RMK AO2 T10201042
KFFX 101659Z AUTO 26006KT 10SM OVC019 M02/M04 A2983 RMK AO2 T10201040
KFFX 101639Z AUTO 25006KT 10SM OVC019 M02/M04 A2983 RMK AO2 T10211041
KFFX 101619Z AUTO 25004KT 10SM OVC019 M02/M04 A2983 RMK AO2 T10211043
KFFX 101559Z AUTO 25004KT 10SM OVC021 M02/M04 A2984 RMK AO2 T10231045
KFFX 101539Z AUTO 24005KT 10SM BKN023 OVC029 M02/M05 A2985 RMK AO2 T10251046
KFFX 101519Z AUTO 24005KT 10SM BKN020 OVC028 M03/M05 A2985 RMK AO2 T10271049
KFFX 101459Z AUTO 23005KT 10SM BKN019 OVC026 M03/M05 A2985 RMK AO2 T10301051
KFFX 101439Z AUTO 24004KT 10SM BKN019 OVC029 M03/M05 A2985 RMK AO2 T10321055
KFFX 101419Z AUTO 24005KT 10SM SCT022 OVC031 M04/M06 A2985 RMK AO2 T10371057
KFFX 101359Z AUTO 23005KT 10SM BKN024 BKN029 OVC048 M04/M06 A2985 RMK AO2 T10401060
KFFX 101339Z AUTO 23006KT 10SM BKN024 OVC043 M04/M06 A2986 RMK AO2 T10431065
KFFX 101319Z AUTO 23006KT 10SM BKN043 OVC050 M04/M07 A2986 RMK AO2 T10451066
KFFX 101258Z AUTO 23004KT 10SM SCT037 OVC050 M05/M07 A2986 RMK AO2 T10471068
KFFX 101238Z AUTO 22004KT 10SM BKN039 BKN055 OVC090 M05/M07 A2986 RMK AO2 T10471068
KFFX 101218Z AUTO 24004KT 10SM SCT023 BKN039 OVC045 M04/M07 A2987 RMK AO2 T10451070
KFFX 101158Z AUTO 24004KT 10SM OVC045 M05/M07 A2987 RMK AO2 T10481070 11047 21054
KFFX 101138Z AUTO 22004KT 10SM BKN047 OVC055 M05/M07 A2987 RMK AO2 T10501070
KFFX 101118Z AUTO 22004KT 10SM OVC055 M05/M07 A2987 RMK AO2 T10521067
KFFX 101058Z AUTO 23004KT 10SM SCT025 SCT042 OVC065 M05/M07 A2987 RMK AO2 T10531070
KFFX 101038Z AUTO 24004KT 10SM BKN025 BKN032 OVC065 M05/M07 A2988 RMK AO2 T10521070
KFFX 101018Z AUTO 25004KT 7SM -SN BKN025 BKN033 OVC047 M05/M07 A2989 RMK AO2 T10501073
KFFX 100958Z AUTO 27006KT 10SM BKN023 OVC045 M05/M07 A2989 RMK AO2 T10501074
KFFX 100938Z AUTO 26005KT 10SM OVC023 M05/M07 A2989 RMK AO2 T10501073
KFFX 100918Z AUTO 26006KT 10SM OVC021 M05/M07 A2990 RMK AO2 T10501072
KFFX 100857Z AUTO 26004KT 10SM OVC021 M05/M07 A2990 RMK AO2 T10501073
KFFX 100836Z AUTO 25005KT 10SM OVC023 M05/M07 A2990 RMK AO2 T10501075
KFFX 100816Z AUTO 27005KT 10SM OVC023 M05/M07 A2992 RMK AO2 T10501073
KFFX 100755Z AUTO 26004KT 10SM OVC023 M05/M07 A2991 RMK AO2 T10501075
KFFX 100735Z AUTO 26004KT 10SM OVC023 M05/M08 A2991 RMK AO2 T10511077
KFFX 100715Z AUTO 25003KT 10SM OVC025 M05/M08 A2992 RMK AO2 T10511078
KFFX 100655Z AUTO 26004KT 10SM OVC025 M05/M08 A2992 RMK AO2 T10521080
KFFX 100635Z AUTO 27004KT 10SM OVC027 M05/M08 A2992 RMK AO2 T10521080
KFFX 100615Z AUTO 27004KT 10SM OVC029 M05/M08 A2993 RMK AO2 T10481078
KFFX 100555Z AUTO 29007KT 10SM OVC031 M05/M08 A2994 RMK AO2 T10511080 11033 21052 410121068
KFFX 100535Z AUTO 29008KT 10SM OVC033 M05/M08 A2994 RMK AO2 T10511081
KFFX 100515Z AUTO 29006KT 10SM OVC033 M04/M08 A2994 RMK AO2 T10451077
KFFX 100455Z AUTO 28006KT 10SM OVC037 M04/M07 A2995 RMK AO2 T10421073
KFFX 100435Z AUTO 30010KT 10SM OVC037 M04/M07 A2995 RMK AO2 T10401072
KFFX 100415Z AUTO 30007KT 10SM OVC039 M04/M06 A2995 RMK AO2 T10371061
KFFX 100359Z AUTO 29005KT 10SM SCT027 OVC037 M04/M05 A2995 RMK AO2 T10381050
KFFX 100339Z AUTO 30005KT 10SM -SN OVC027 M04/M05 A2994 RMK AO2 T10371048
KFFX 100319Z AUTO 28003KT 10SM OVC027 M04/M05 A2994 RMK AO2 T10371048